Terminal Aerodrome Forecast
Issued by NWS Sterling, VA

Current Version | Previous Version | Graphics & Text | Print | Product List | Glossary Off
Versions: 1 2 3 4 5 6 7 8 9 10 11 12 13 14 15 16 17 18 19 20 21 22 23

220
FTUS41 KLWX 270520
TAFDCA
TAF
KDCA 270520Z 2706/2812 18005KT P6SM SCT020 BKN150
     FM270700 20004KT P6SM BKN015
     FM270900 22004KT P6SM BKN008
     FM271200 22005KT P6SM BKN050
     FM271800 19005KT P6SM VCTS OVC040CB
     FM280000 16005KT P6SM BKN025=

USA.gov is the U.S. government's official web portal to all federal, state and local government web resources and services.